sensor_id;sensor_type;location;lat;lon;timestamp;P1;durP1;ratioP1;P2;durP2;ratioP2
75429;SDS011;64127;51.488;5.462;2023-07-09T00:00:06;11.33;;;9.43;;
75429;SDS011;64127;51.488;5.462;2023-07-09T00:02:49;10.00;;;9.00;;
75429;SDS011;64127;51.488;5.462;2023-07-09T00:05:21;9.70;;;8.80;;
75429;SDS011;64127;51.488;5.462;2023-07-09T00:07:53;11.60;;;9.57;;
75429;SDS011;64127;51.488;5.462;2023-07-09T00:10:25;12.53;;;9.30;;
75429;SDS011;64127;51.488;5.462;2023-07-09T00:12:57;11.57;;;8.77;;
75429;SDS011;64127;51.488;5.462;2023-07-09T00:15:29;12.40;;;8.70;;
75429;SDS011;64127;51.488;5.462;2023-07-09T00:18:01;10.57;;;8.83;;
75429;SDS011;64127;51.488;5.462;2023-07-09T00:20:33;9.73;;;8.47;;
75429;SDS011;64127;51.488;5.462;2023-07-09T00:23:05;9.07;;;8.30;;
75429;SDS011;64127;51.488;5.462;2023-07-09T00:25:37;10.20;;;9.00;;
75429;SDS011;64127;51.488;5.462;2023-07-09T00:28:13;9.37;;;8.37;;
75429;SDS011;64127;51.488;5.462;2023-07-09T00:30:49;10.47;;;8.37;;
75429;SDS011;64127;51.488;5.462;2023-07-09T00:33:21;10.10;;;8.80;;
75429;SDS011;64127;51.488;5.462;2023-07-09T00:35:53;10.13;;;8.57;;
75429;SDS011;64127;51.488;5.462;2023-07-09T00:38:26;9.57;;;8.57;;
75429;SDS011;64127;51.488;5.462;2023-07-09T00:43:31;10.57;;;8.53;;
75429;SDS011;64127;51.488;5.462;2023-07-09T00:48:57;9.33;;;8.47;;
75429;SDS011;64127;51.488;5.462;2023-07-09T00:51:38;9.20;;;8.30;;
75429;SDS011;64127;51.488;5.462;2023-07-09T00:54:36;9.10;;;8.20;;
75429;SDS011;64127;51.488;5.462;2023-07-09T00:57:11;9.30;;;8.43;;
75429;SDS011;64127;51.488;5.462;2023-07-09T00:59:53;9.57;;;8.60;;
75429;SDS011;64127;51.488;5.462;2023-07-09T01:02:40;9.37;;;8.40;;
75429;SDS011;64127;51.488;5.462;2023-07-09T01:05:20;9.27;;;8.37;;
75429;SDS011;64127;51.488;5.462;2023-07-09T01:07:53;8.73;;;7.93;;
75429;SDS011;64127;51.488;5.462;2023-07-09T01:10:25;9.03;;;8.13;;
75429;SDS011;64127;51.488;5.462;2023-07-09T01:12:57;9.60;;;8.60;;
75429;SDS011;64127;51.488;5.462;2023-07-09T01:15:29;10.20;;;8.43;;
75429;SDS011;64127;51.488;5.462;2023-07-09T01:18:01;9.67;;;8.73;;
75429;SDS011;64127;51.488;5.462;2023-07-09T01:20:33;9.43;;;8.27;;
75429;SDS011;64127;51.488;5.462;2023-07-09T01:23:06;10.00;;;8.47;;
75429;SDS011;64127;51.488;5.462;2023-07-09T01:25:46;9.60;;;8.57;;
75429;SDS011;64127;51.488;5.462;2023-07-09T01:28:23;9.87;;;8.47;;
75429;SDS011;64127;51.488;5.462;2023-07-09T01:30:55;8.53;;;7.70;;
75429;SDS011;64127;51.488;5.462;2023-07-09T01:33:28;10.97;;;8.13;;
75429;SDS011;64127;51.488;5.462;2023-07-09T01:36:00;9.43;;;7.70;;
75429;SDS011;64127;51.488;5.462;2023-07-09T01:38:33;9.80;;;8.80;;
75429;SDS011;64127;51.488;5.462;2023-07-09T01:41:05;10.40;;;8.13;;
75429;SDS011;64127;51.488;5.462;2023-07-09T01:43:38;9.70;;;8.70;;
75429;SDS011;64127;51.488;5.462;2023-07-09T01:46:12;11.20;;;8.47;;
75429;SDS011;64127;51.488;5.462;2023-07-09T01:48:45;9.60;;;8.57;;
75429;SDS011;64127;51.488;5.462;2023-07-09T01:51:17;10.23;;;9.03;;
75429;SDS011;64127;51.488;5.462;2023-07-09T01:53:49;10.00;;;8.50;;
75429;SDS011;64127;51.488;5.462;2023-07-09T01:56:21;9.40;;;8.40;;
75429;SDS011;64127;51.488;5.462;2023-07-09T01:58:55;9.93;;;8.93;;
75429;SDS011;64127;51.488;5.462;2023-07-09T02:01:32;9.77;;;8.77;;
75429;SDS011;64127;51.488;5.462;2023-07-09T02:04:05;10.90;;;9.30;;
75429;SDS011;64127;51.488;5.462;2023-07-09T02:06:37;11.07;;;9.20;;
75429;SDS011;64127;51.488;5.462;2023-07-09T02:09:09;10.37;;;9.03;;
75429;SDS011;64127;51.488;5.462;2023-07-09T02:11:41;9.97;;;8.93;;
75429;SDS011;64127;51.488;5.462;2023-07-09T02:14:13;10.63;;;9.60;;
75429;SDS011;64127;51.488;5.462;2023-07-09T02:16:45;10.23;;;9.13;;
75429;SDS011;64127;51.488;5.462;2023-07-09T02:19:17;11.33;;;9.87;;
75429;SDS011;64127;51.488;5.462;2023-07-09T02:21:49;11.43;;;9.17;;
75429;SDS011;64127;51.488;5.462;2023-07-09T02:24:21;10.30;;;9.30;;
75429;SDS011;64127;51.488;5.462;2023-07-09T02:26:57;12.07;;;9.70;;
75429;SDS011;64127;51.488;5.462;2023-07-09T02:29:32;10.17;;;9.10;;
75429;SDS011;64127;51.488;5.462;2023-07-09T02:32:05;13.13;;;9.47;;
75429;SDS011;64127;51.488;5.462;2023-07-09T02:34:38;10.13;;;9.13;;
75429;SDS011;64127;51.488;5.462;2023-07-09T02:37:10;9.90;;;8.90;;
75429;SDS011;64127;51.488;5.462;2023-07-09T02:39:42;10.13;;;9.13;;
75429;SDS011;64127;51.488;5.462;2023-07-09T02:42:15;10.57;;;9.47;;
75429;SDS011;64127;51.488;5.462;2023-07-09T02:44:49;11.17;;;9.93;;
75429;SDS011;64127;51.488;5.462;2023-07-09T02:47:22;11.03;;;9.80;;
75429;SDS011;64127;51.488;5.462;2023-07-09T02:49:54;11.27;;;9.50;;
75429;SDS011;64127;51.488;5.462;2023-07-09T02:52:26;11.13;;;10.03;;
75429;SDS011;64127;51.488;5.462;2023-07-09T02:54:58;12.63;;;10.47;;
75429;SDS011;64127;51.488;5.462;2023-07-09T02:57:30;11.60;;;10.03;;
75429;SDS011;64127;51.488;5.462;2023-07-09T03:00:02;11.37;;;10.20;;
75429;SDS011;64127;51.488;5.462;2023-07-09T03:02:36;12.67;;;11.27;;
75429;SDS011;64127;51.488;5.462;2023-07-09T03:05:08;11.53;;;10.17;;
75429;SDS011;64127;51.488;5.462;2023-07-09T03:07:42;12.33;;;10.47;;
75429;SDS011;64127;51.488;5.462;2023-07-09T03:10:13;12.50;;;10.37;;
75429;SDS011;64127;51.488;5.462;2023-07-09T03:12:46;11.50;;;10.43;;
75429;SDS011;64127;51.488;5.462;2023-07-09T03:15:18;11.77;;;10.27;;
75429;SDS011;64127;51.488;5.462;2023-07-09T03:17:50;11.87;;;10.67;;
75429;SDS011;64127;51.488;5.462;2023-07-09T03:20:22;14.57;;;11.20;;
75429;SDS011;64127;51.488;5.462;2023-07-09T03:22:54;12.57;;;11.27;;
75429;SDS011;64127;51.488;5.462;2023-07-09T03:25:26;12.23;;;10.97;;
75429;SDS011;64127;51.488;5.462;2023-07-09T03:27:58;12.90;;;10.83;;
75429;SDS011;64127;51.488;5.462;2023-07-09T03:30:30;12.63;;;11.10;;
75429;SDS011;64127;51.488;5.462;2023-07-09T03:33:02;13.53;;;12.13;;
75429;SDS011;64127;51.488;5.462;2023-07-09T03:35:35;12.30;;;11.00;;
75429;SDS011;64127;51.488;5.462;2023-07-09T03:38:10;12.10;;;10.90;;
75429;SDS011;64127;51.488;5.462;2023-07-09T03:40:43;12.77;;;11.37;;
75429;SDS011;64127;51.488;5.462;2023-07-09T03:43:15;13.23;;;11.83;;
75429;SDS011;64127;51.488;5.462;2023-07-09T03:45:47;13.20;;;11.80;;
75429;SDS011;64127;51.488;5.462;2023-07-09T03:48:20;14.20;;;12.73;;
75429;SDS011;64127;51.488;5.462;2023-07-09T03:50:52;13.20;;;11.90;;
75429;SDS011;64127;51.488;5.462;2023-07-09T03:53:24;14.10;;;12.60;;
75429;SDS011;64127;51.488;5.462;2023-07-09T03:55:56;13.60;;;12.20;;
75429;SDS011;64127;51.488;5.462;2023-07-09T03:58:29;13.63;;;12.07;;
75429;SDS011;64127;51.488;5.462;2023-07-09T04:01:01;13.67;;;12.30;;
75429;SDS011;64127;51.488;5.462;2023-07-09T04:03:34;14.00;;;12.53;;
75429;SDS011;64127;51.488;5.462;2023-07-09T04:06:06;13.80;;;12.40;;
75429;SDS011;64127;51.488;5.462;2023-07-09T04:08:38;13.80;;;12.33;;
75429;SDS011;64127;51.488;5.462;2023-07-09T04:11:10;14.37;;;12.87;;
75429;SDS011;64127;51.488;5.462;2023-07-09T04:13:42;14.90;;;12.40;;
75429;SDS011;64127;51.488;5.462;2023-07-09T04:16:14;13.93;;;12.47;;
75429;SDS011;64127;51.488;5.462;2023-07-09T04:18:46;15.20;;;13.17;;
75429;SDS011;64127;51.488;5.462;2023-07-09T04:21:18;13.80;;;12.40;;
75429;SDS011;64127;51.488;5.462;2023-07-09T04:23:50;14.83;;;12.47;;
75429;SDS011;64127;51.488;5.462;2023-07-09T04:26:22;13.93;;;12.57;;
75429;SDS011;64127;51.488;5.462;2023-07-09T04:28:54;15.03;;;13.53;;
75429;SDS011;64127;51.488;5.462;2023-07-09T04:31:26;14.33;;;12.83;;
75429;SDS011;64127;51.488;5.462;2023-07-09T04:33:58;13.63;;;12.27;;
75429;SDS011;64127;51.488;5.462;2023-07-09T04:36:30;14.20;;;12.63;;
75429;SDS011;64127;51.488;5.462;2023-07-09T04:39:03;13.90;;;12.60;;
75429;SDS011;64127;51.488;5.462;2023-07-09T04:41:35;14.67;;;12.60;;
75429;SDS011;64127;51.488;5.462;2023-07-09T04:44:07;15.60;;;12.77;;
75429;SDS011;64127;51.488;5.462;2023-07-09T04:46:39;15.03;;;13.10;;
75429;SDS011;64127;51.488;5.462;2023-07-09T04:49:12;13.47;;;12.07;;
75429;SDS011;64127;51.488;5.462;2023-07-09T04:51:44;14.23;;;12.73;;
75429;SDS011;64127;51.488;5.462;2023-07-09T04:54:16;14.60;;;13.10;;
75429;SDS011;64127;51.488;5.462;2023-07-09T04:56:48;14.50;;;13.07;;
75429;SDS011;64127;51.488;5.462;2023-07-09T04:59:20;14.17;;;12.67;;
75429;SDS011;64127;51.488;5.462;2023-07-09T05:01:53;14.70;;;13.00;;
75429;SDS011;64127;51.488;5.462;2023-07-09T05:04:25;14.83;;;13.43;;
75429;SDS011;64127;51.488;5.462;2023-07-09T05:06:57;14.17;;;12.77;;
75429;SDS011;64127;51.488;5.462;2023-07-09T05:09:30;14.73;;;13.23;;
75429;SDS011;64127;51.488;5.462;2023-07-09T05:12:02;14.90;;;13.50;;
75429;SDS011;64127;51.488;5.462;2023-07-09T05:14:34;15.80;;;14.20;;
75429;SDS011;64127;51.488;5.462;2023-07-09T05:17:06;15.30;;;13.73;;
75429;SDS011;64127;51.488;5.462;2023-07-09T05:19:39;16.30;;;14.07;;
75429;SDS011;64127;51.488;5.462;2023-07-09T05:22:11;15.30;;;13.67;;
75429;SDS011;64127;51.488;5.462;2023-07-09T05:24:43;15.00;;;13.57;;
75429;SDS011;64127;51.488;5.462;2023-07-09T05:27:15;14.70;;;13.20;;
75429;SDS011;64127;51.488;5.462;2023-07-09T05:29:47;14.50;;;13.00;;
75429;SDS011;64127;51.488;5.462;2023-07-09T05:32:19;14.60;;;13.10;;
75429;SDS011;64127;51.488;5.462;2023-07-09T05:34:51;14.27;;;12.83;;
75429;SDS011;64127;51.488;5.462;2023-07-09T05:37:23;14.23;;;12.67;;
75429;SDS011;64127;51.488;5.462;2023-07-09T05:39:55;13.53;;;12.13;;
75429;SDS011;64127;51.488;5.462;2023-07-09T05:42:27;14.47;;;12.97;;
75429;SDS011;64127;51.488;5.462;2023-07-09T05:44:59;13.80;;;12.40;;
75429;SDS011;64127;51.488;5.462;2023-07-09T05:47:31;13.43;;;12.03;;
75429;SDS011;64127;51.488;5.462;2023-07-09T05:50:04;13.77;;;11.83;;
75429;SDS011;64127;51.488;5.462;2023-07-09T05:52:36;13.57;;;11.47;;
75429;SDS011;64127;51.488;5.462;2023-07-09T05:55:08;14.27;;;11.33;;
75429;SDS011;64127;51.488;5.462;2023-07-09T05:57:40;11.37;;;9.97;;
75429;SDS011;64127;51.488;5.462;2023-07-09T06:00:13;14.83;;;10.60;;
75429;SDS011;64127;51.488;5.462;2023-07-09T06:02:45;11.80;;;10.30;;
75429;SDS011;64127;51.488;5.462;2023-07-09T06:05:18;11.90;;;9.50;;
75429;SDS011;64127;51.488;5.462;2023-07-09T06:07:50;11.63;;;9.40;;
75429;SDS011;64127;51.488;5.462;2023-07-09T06:10:22;13.63;;;9.90;;
75429;SDS011;64127;51.488;5.462;2023-07-09T06:12:54;10.63;;;9.53;;
75429;SDS011;64127;51.488;5.462;2023-07-09T06:15:26;11.33;;;8.70;;
75429;SDS011;64127;51.488;5.462;2023-07-09T06:17:58;9.17;;;8.20;;
75429;SDS011;64127;51.488;5.462;2023-07-09T06:20:30;10.30;;;8.70;;
75429;SDS011;64127;51.488;5.462;2023-07-09T06:23:02;11.43;;;9.40;;
75429;SDS011;64127;51.488;5.462;2023-07-09T06:25:33;12.00;;;9.07;;
75429;SDS011;64127;51.488;5.462;2023-07-09T06:28:08;12.73;;;8.93;;
75429;SDS011;64127;51.488;5.462;2023-07-09T06:30:40;9.30;;;8.40;;
75429;SDS011;64127;51.488;5.462;2023-07-09T06:33:13;9.43;;;8.40;;
75429;SDS011;64127;51.488;5.462;2023-07-09T06:35:50;10.77;;;8.70;;
75429;SDS011;64127;51.488;5.462;2023-07-09T06:38:30;9.70;;;8.70;;
75429;SDS011;64127;51.488;5.462;2023-07-09T06:41:02;12.70;;;9.00;;
75429;SDS011;64127;51.488;5.462;2023-07-09T06:43:34;11.67;;;9.30;;
75429;SDS011;64127;51.488;5.462;2023-07-09T06:46:11;12.03;;;8.80;;
75429;SDS011;64127;51.488;5.462;2023-07-09T06:48:45;13.10;;;9.57;;
75429;SDS011;64127;51.488;5.462;2023-07-09T06:51:17;10.77;;;8.80;;
75429;SDS011;64127;51.488;5.462;2023-07-09T06:53:49;10.80;;;8.87;;
75429;SDS011;64127;51.488;5.462;2023-07-09T06:56:22;9.90;;;8.90;;
75429;SDS011;64127;51.488;5.462;2023-07-09T06:58:54;11.57;;;8.93;;
75429;SDS011;64127;51.488;5.462;2023-07-09T07:01:27;11.90;;;8.50;;
75429;SDS011;64127;51.488;5.462;2023-07-09T07:03:59;11.17;;;9.30;;
75429;SDS011;64127;51.488;5.462;2023-07-09T07:06:31;10.60;;;8.37;;
75429;SDS011;64127;51.488;5.462;2023-07-09T07:09:03;11.53;;;8.80;;
75429;SDS011;64127;51.488;5.462;2023-07-09T07:11:36;9.30;;;8.20;;
75429;SDS011;64127;51.488;5.462;2023-07-09T07:14:07;8.73;;;7.83;;
75429;SDS011;64127;51.488;5.462;2023-07-09T07:16:40;10.10;;;7.67;;
75429;SDS011;64127;51.488;5.462;2023-07-09T07:19:12;9.17;;;7.93;;
75429;SDS011;64127;51.488;5.462;2023-07-09T07:21:44;8.67;;;7.77;;
75429;SDS011;64127;51.488;5.462;2023-07-09T07:24:16;9.73;;;8.17;;
75429;SDS011;64127;51.488;5.462;2023-07-09T07:26:48;10.77;;;7.90;;
75429;SDS011;64127;51.488;5.462;2023-07-09T07:29:20;9.53;;;7.90;;
75429;SDS011;64127;51.488;5.462;2023-07-09T07:31:53;9.57;;;7.50;;
75429;SDS011;64127;51.488;5.462;2023-07-09T07:34:26;8.67;;;7.37;;
75429;SDS011;64127;51.488;5.462;2023-07-09T07:36:58;8.00;;;6.70;;
75429;SDS011;64127;51.488;5.462;2023-07-09T07:39:30;9.03;;;6.87;;
75429;SDS011;64127;51.488;5.462;2023-07-09T07:42:02;8.00;;;7.20;;
75429;SDS011;64127;51.488;5.462;2023-07-09T07:44:37;7.33;;;6.47;;
75429;SDS011;64127;51.488;5.462;2023-07-09T07:47:09;7.43;;;6.73;;
75429;SDS011;64127;51.488;5.462;2023-07-09T07:49:43;10.80;;;6.67;;
75429;SDS011;64127;51.488;5.462;2023-07-09T07:52:15;8.07;;;7.20;;
75429;SDS011;64127;51.488;5.462;2023-07-09T07:54:47;7.80;;;6.60;;
75429;SDS011;64127;51.488;5.462;2023-07-09T07:57:19;8.57;;;6.47;;
75429;SDS011;64127;51.488;5.462;2023-07-09T07:59:53;9.23;;;6.97;;
75429;SDS011;64127;51.488;5.462;2023-07-09T08:02:25;8.47;;;6.57;;
75429;SDS011;64127;51.488;5.462;2023-07-09T08:04:57;7.37;;;6.50;;
75429;SDS011;64127;51.488;5.462;2023-07-09T08:07:29;7.73;;;6.20;;
75429;SDS011;64127;51.488;5.462;2023-07-09T08:10:01;8.33;;;7.07;;
75429;SDS011;64127;51.488;5.462;2023-07-09T08:12:34;8.63;;;6.63;;
75429;SDS011;64127;51.488;5.462;2023-07-09T08:15:06;8.47;;;6.73;;
75429;SDS011;64127;51.488;5.462;2023-07-09T08:17:39;7.63;;;6.80;;
75429;SDS011;64127;51.488;5.462;2023-07-09T08:20:11;10.47;;;6.80;;
75429;SDS011;64127;51.488;5.462;2023-07-09T08:22:43;8.20;;;6.57;;
75429;SDS011;64127;51.488;5.462;2023-07-09T08:25:17;7.70;;;6.57;;
75429;SDS011;64127;51.488;5.462;2023-07-09T08:27:49;9.50;;;6.93;;
75429;SDS011;64127;51.488;5.462;2023-07-09T08:30:21;7.60;;;6.60;;
75429;SDS011;64127;51.488;5.462;2023-07-09T08:32:53;7.00;;;6.30;;
75429;SDS011;64127;51.488;5.462;2023-07-09T08:35:27;7.55;;;6.72;;
75429;SDS011;64127;51.488;5.462;2023-07-09T08:38:07;8.95;;;6.72;;
75429;SDS011;64127;51.488;5.462;2023-07-09T08:40:49;8.27;;;6.47;;
75429;SDS011;64127;51.488;5.462;2023-07-09T08:49:41;8.07;;;6.57;;
75429;SDS011;64127;51.488;5.462;2023-07-09T08:52:37;7.72;;;6.93;;
75429;SDS011;64127;51.488;5.462;2023-07-09T08:55:25;8.85;;;6.88;;
75429;SDS011;64127;51.488;5.462;2023-07-09T08:58:26;7.47;;;6.57;;
75429;SDS011;64127;51.488;5.462;2023-07-09T09:01:02;7.68;;;6.55;;
75429;SDS011;64127;51.488;5.462;2023-07-09T09:03:47;7.57;;;6.10;;
75429;SDS011;64127;51.488;5.462;2023-07-09T09:06:34;7.43;;;6.25;;
75429;SDS011;64127;51.488;5.462;2023-07-09T09:15:18;6.97;;;6.28;;
75429;SDS011;64127;51.488;5.462;2023-07-09T09:17:53;9.55;;;6.28;;
75429;SDS011;64127;51.488;5.462;2023-07-09T09:20:41;7.97;;;6.32;;
75429;SDS011;64127;51.488;5.462;2023-07-09T09:23:13;7.43;;;6.60;;
75429;SDS011;64127;51.488;5.462;2023-07-09T09:25:48;7.53;;;6.20;;
75429;SDS011;64127;51.488;5.462;2023-07-09T09:28:44;8.35;;;6.53;;
75429;SDS011;64127;51.488;5.462;2023-07-09T09:31:16;9.70;;;6.22;;
75429;SDS011;64127;51.488;5.462;2023-07-09T09:33:49;8.05;;;6.22;;
75429;SDS011;64127;51.488;5.462;2023-07-09T09:36:23;7.05;;;6.35;;
75429;SDS011;64127;51.488;5.462;2023-07-09T09:39:01;7.40;;;6.40;;
75429;SDS011;64127;51.488;5.462;2023-07-09T09:41:34;9.70;;;6.63;;
75429;SDS011;64127;51.488;5.462;2023-07-09T09:44:16;9.10;;;6.65;;
75429;SDS011;64127;51.488;5.462;2023-07-09T09:46:51;7.47;;;6.68;;
75429;SDS011;64127;51.488;5.462;2023-07-09T09:49:29;9.80;;;6.68;;
75429;SDS011;64127;51.488;5.462;2023-07-09T09:52:13;9.00;;;6.53;;
75429;SDS011;64127;51.488;5.462;2023-07-09T09:54:56;7.32;;;6.53;;
75429;SDS011;64127;51.488;5.462;2023-07-09T09:57:46;7.72;;;6.82;;
75429;SDS011;64127;51.488;5.462;2023-07-09T10:00:25;8.82;;;6.88;;
75429;SDS011;64127;51.488;5.462;2023-07-09T10:03:01;8.20;;;6.88;;
75429;SDS011;64127;51.488;5.462;2023-07-09T10:05:40;7.38;;;6.57;;
75429;SDS011;64127;51.488;5.462;2023-07-09T10:11:31;7.30;;;6.03;;
75429;SDS011;64127;51.488;5.462;2023-07-09T10:20:15;7.30;;;6.45;;
75429;SDS011;64127;51.488;5.462;2023-07-09T10:26:15;6.60;;;5.72;;
75429;SDS011;64127;51.488;5.462;2023-07-09T10:38:20;7.57;;;5.68;;
75429;SDS011;64127;51.488;5.462;2023-07-09T10:41:14;5.78;;;5.20;;
75429;SDS011;64127;51.488;5.462;2023-07-09T10:44:02;8.57;;;5.20;;
75429;SDS011;64127;51.488;5.462;2023-07-09T10:46:51;6.03;;;4.80;;
75429;SDS011;64127;51.488;5.462;2023-07-09T10:49:33;5.53;;;5.03;;
75429;SDS011;64127;51.488;5.462;2023-07-09T10:58:25;7.18;;;5.50;;
75429;SDS011;64127;51.488;5.462;2023-07-09T11:01:15;10.77;;;5.95;;
75429;SDS011;64127;51.488;5.462;2023-07-09T11:03:59;6.07;;;5.00;;
75429;SDS011;64127;51.488;5.462;2023-07-09T11:06:41;6.80;;;4.53;;
75429;SDS011;64127;51.488;5.462;2023-07-09T11:09:30;6.10;;;5.15;;
75429;SDS011;64127;51.488;5.462;2023-07-09T11:12:12;8.13;;;5.13;;
75429;SDS011;64127;51.488;5.462;2023-07-09T11:14:58;6.55;;;4.68;;
75429;SDS011;64127;51.488;5.462;2023-07-09T11:17:40;7.65;;;4.93;;
75429;SDS011;64127;51.488;5.462;2023-07-09T11:20:22;7.35;;;4.95;;
75429;SDS011;64127;51.488;5.462;2023-07-09T11:23:06;7.43;;;4.90;;
75429;SDS011;64127;51.488;5.462;2023-07-09T11:26:03;6.10;;;5.40;;
75429;SDS011;64127;51.488;5.462;2023-07-09T11:28:54;6.50;;;4.72;;
75429;SDS011;64127;51.488;5.462;2023-07-09T11:31:40;6.70;;;4.90;;
75429;SDS011;64127;51.488;5.462;2023-07-09T11:34:18;9.43;;;5.22;;
75429;SDS011;64127;51.488;5.462;2023-07-09T11:42:30;8.68;;;5.05;;
75429;SDS011;64127;51.488;5.462;2023-07-09T11:45:12;7.70;;;4.93;;
75429;SDS011;64127;51.488;5.462;2023-07-09T11:47:53;5.25;;;4.78;;
75429;SDS011;64127;51.488;5.462;2023-07-09T11:50:56;6.70;;;5.05;;
75429;SDS011;64127;51.488;5.462;2023-07-09T11:53:45;5.32;;;4.72;;
75429;SDS011;64127;51.488;5.462;2023-07-09T11:56:23;6.75;;;5.18;;
75429;SDS011;64127;51.488;5.462;2023-07-09T11:58:57;11.55;;;5.13;;
75429;SDS011;64127;51.488;5.462;2023-07-09T12:01:34;7.47;;;5.07;;
75429;SDS011;64127;51.488;5.462;2023-07-09T12:04:16;6.38;;;5.25;;
75429;SDS011;64127;51.488;5.462;2023-07-09T12:06:52;6.75;;;5.65;;
75429;SDS011;64127;51.488;5.462;2023-07-09T12:09:30;6.40;;;5.72;;
75429;SDS011;64127;51.488;5.462;2023-07-09T12:12:16;6.00;;;5.40;;
75429;SDS011;64127;51.488;5.462;2023-07-09T12:14:59;9.73;;;5.85;;
75429;SDS011;64127;51.488;5.462;2023-07-09T12:17:36;9.38;;;5.50;;
75429;SDS011;64127;51.488;5.462;2023-07-09T12:20:16;9.23;;;5.70;;
75429;SDS011;64127;51.488;5.462;2023-07-09T12:22:48;6.63;;;5.10;;
75429;SDS011;64127;51.488;5.462;2023-07-09T12:25:24;6.03;;;5.43;;
75429;SDS011;64127;51.488;5.462;2023-07-09T12:28:00;6.78;;;5.50;;
75429;SDS011;64127;51.488;5.462;2023-07-09T12:30:33;5.97;;;5.38;;
75429;SDS011;64127;51.488;5.462;2023-07-09T12:33:06;7.13;;;5.15;;
75429;SDS011;64127;51.488;5.462;2023-07-09T12:35:39;6.60;;;5.38;;
75429;SDS011;64127;51.488;5.462;2023-07-09T12:38:16;7.13;;;5.60;;
75429;SDS011;64127;51.488;5.462;2023-07-09T12:40:54;7.05;;;5.10;;
75429;SDS011;64127;51.488;5.462;2023-07-09T12:43:31;7.78;;;5.80;;
75429;SDS011;64127;51.488;5.462;2023-07-09T12:46:03;11.02;;;6.90;;
75429;SDS011;64127;51.488;5.462;2023-07-09T12:48:36;9.15;;;7.00;;
75429;SDS011;64127;51.488;5.462;2023-07-09T12:51:08;9.07;;;8.13;;
75429;SDS011;64127;51.488;5.462;2023-07-09T12:53:40;10.85;;;8.05;;
75429;SDS011;64127;51.488;5.462;2023-07-09T12:56:13;9.73;;;8.70;;
75429;SDS011;64127;51.488;5.462;2023-07-09T12:58:48;12.70;;;10.48;;
75429;SDS011;64127;51.488;5.462;2023-07-09T13:01:20;15.20;;;10.52;;
75429;SDS011;64127;51.488;5.462;2023-07-09T13:03:55;13.63;;;12.07;;
75429;SDS011;64127;51.488;5.462;2023-07-09T13:06:35;12.48;;;11.23;;
75429;SDS011;64127;51.488;5.462;2023-07-09T13:09:47;13.60;;;12.13;;
75429;SDS011;64127;51.488;5.462;2023-07-09T13:12:06;12.82;;;11.43;;
75429;SDS011;64127;51.488;5.462;2023-07-09T13:14:38;12.65;;;11.38;;
75429;SDS011;64127;51.488;5.462;2023-07-09T13:17:11;14.73;;;11.50;;
75429;SDS011;64127;51.488;5.462;2023-07-09T13:19:47;12.65;;;11.27;;
75429;SDS011;64127;51.488;5.462;2023-07-09T13:22:21;12.43;;;11.32;;
75429;SDS011;64127;51.488;5.462;2023-07-09T13:24:53;12.40;;;11.20;;
75429;SDS011;64127;51.488;5.462;2023-07-09T13:27:25;14.48;;;11.65;;
75429;SDS011;64127;51.488;5.462;2023-07-09T13:29:57;12.85;;;11.30;;
75429;SDS011;64127;51.488;5.462;2023-07-09T13:32:29;13.18;;;11.45;;
75429;SDS011;64127;51.488;5.462;2023-07-09T13:35:01;12.68;;;11.48;;
75429;SDS011;64127;51.488;5.462;2023-07-09T13:37:35;12.52;;;11.13;;
75429;SDS011;64127;51.488;5.462;2023-07-09T13:40:09;11.95;;;10.05;;
75429;SDS011;64127;51.488;5.462;2023-07-09T13:42:47;11.27;;;9.68;;
75429;SDS011;64127;51.488;5.462;2023-07-09T13:45:21;12.07;;;9.32;;
75429;SDS011;64127;51.488;5.462;2023-07-09T13:47:56;10.25;;;9.32;;
75429;SDS011;64127;51.488;5.462;2023-07-09T13:50:28;10.00;;;9.00;;
75429;SDS011;64127;51.488;5.462;2023-07-09T13:53:00;10.68;;;9.10;;
75429;SDS011;64127;51.488;5.462;2023-07-09T13:55:32;13.13;;;9.30;;
75429;SDS011;64127;51.488;5.462;2023-07-09T13:58:04;12.67;;;9.30;;
75429;SDS011;64127;51.488;5.462;2023-07-09T14:00:37;9.07;;;8.00;;
75429;SDS011;64127;51.488;5.462;2023-07-09T14:03:21;8.63;;;7.83;;
75429;SDS011;64127;51.488;5.462;2023-07-09T14:05:57;8.90;;;7.50;;
75429;SDS011;64127;51.488;5.462;2023-07-09T14:08:29;8.23;;;7.10;;
75429;SDS011;64127;51.488;5.462;2023-07-09T14:11:01;8.03;;;6.30;;
75429;SDS011;64127;51.488;5.462;2023-07-09T14:13:34;7.30;;;5.97;;
75429;SDS011;64127;51.488;5.462;2023-07-09T14:16:08;8.10;;;6.67;;
75429;SDS011;64127;51.488;5.462;2023-07-09T14:18:43;9.43;;;6.70;;
75429;SDS011;64127;51.488;5.462;2023-07-09T14:21:17;7.07;;;5.83;;
75429;SDS011;64127;51.488;5.462;2023-07-09T14:23:57;6.27;;;5.67;;
75429;SDS011;64127;51.488;5.462;2023-07-09T14:26:29;6.60;;;5.40;;
75429;SDS011;64127;51.488;5.462;2023-07-09T14:29:01;6.47;;;5.33;;
75429;SDS011;64127;51.488;5.462;2023-07-09T14:31:33;5.77;;;4.70;;
75429;SDS011;64127;51.488;5.462;2023-07-09T14:34:29;7.70;;;5.43;;
75429;SDS011;64127;51.488;5.462;2023-07-09T14:37:03;7.60;;;4.80;;
75429;SDS011;64127;51.488;5.462;2023-07-09T14:39:39;7.77;;;5.13;;
75429;SDS011;64127;51.488;5.462;2023-07-09T14:42:11;6.87;;;4.77;;
75429;SDS011;64127;51.488;5.462;2023-07-09T14:44:44;7.20;;;4.73;;
75429;SDS011;64127;51.488;5.462;2023-07-09T14:47:17;5.53;;;4.47;;
75429;SDS011;64127;51.488;5.462;2023-07-09T14:49:51;7.93;;;4.77;;
75429;SDS011;64127;51.488;5.462;2023-07-09T14:52:23;11.73;;;5.77;;
75429;SDS011;64127;51.488;5.462;2023-07-09T14:54:55;8.83;;;5.13;;
75429;SDS011;64127;51.488;5.462;2023-07-09T14:57:27;5.23;;;4.67;;
75429;SDS011;64127;51.488;5.462;2023-07-09T15:00:01;5.70;;;4.90;;
75429;SDS011;64127;51.488;5.462;2023-07-09T15:02:35;5.47;;;4.57;;
75429;SDS011;64127;51.488;5.462;2023-07-09T15:05:15;5.37;;;4.70;;
75429;SDS011;64127;51.488;5.462;2023-07-09T15:07:49;6.17;;;4.80;;
75429;SDS011;64127;51.488;5.462;2023-07-09T15:10:26;7.00;;;4.80;;
75429;SDS011;64127;51.488;5.462;2023-07-09T15:12:58;5.70;;;4.57;;
75429;SDS011;64127;51.488;5.462;2023-07-09T15:15:31;4.83;;;4.33;;
75429;SDS011;64127;51.488;5.462;2023-07-09T15:18:08;5.10;;;4.33;;
75429;SDS011;64127;51.488;5.462;2023-07-09T15:20:47;6.43;;;4.70;;
75429;SDS011;64127;51.488;5.462;2023-07-09T15:23:27;6.33;;;4.63;;
75429;SDS011;64127;51.488;5.462;2023-07-09T15:26:01;6.30;;;4.43;;
75429;SDS011;64127;51.488;5.462;2023-07-09T15:28:43;5.77;;;4.47;;
75429;SDS011;64127;51.488;5.462;2023-07-09T15:31:18;5.47;;;4.37;;
75429;SDS011;64127;51.488;5.462;2023-07-09T15:33:50;6.30;;;4.67;;
75429;SDS011;64127;51.488;5.462;2023-07-09T15:36:22;5.07;;;4.57;;
75429;SDS011;64127;51.488;5.462;2023-07-09T15:38:54;8.60;;;4.90;;
75429;SDS011;64127;51.488;5.462;2023-07-09T15:41:26;5.70;;;4.60;;
75429;SDS011;64127;51.488;5.462;2023-07-09T15:43:58;5.87;;;4.30;;
75429;SDS011;64127;51.488;5.462;2023-07-09T15:46:30;5.73;;;4.30;;
75429;SDS011;64127;51.488;5.462;2023-07-09T15:49:02;6.77;;;4.47;;
75429;SDS011;64127;51.488;5.462;2023-07-09T15:51:36;5.03;;;4.27;;
75429;SDS011;64127;51.488;5.462;2023-07-09T15:54:26;8.93;;;4.70;;
75429;SDS011;64127;51.488;5.462;2023-07-09T15:56:59;4.83;;;4.20;;
75429;SDS011;64127;51.488;5.462;2023-07-09T15:59:33;7.17;;;4.30;;
75429;SDS011;64127;51.488;5.462;2023-07-09T16:02:11;4.50;;;4.07;;
75429;SDS011;64127;51.488;5.462;2023-07-09T16:04:46;6.63;;;4.10;;
75429;SDS011;64127;51.488;5.462;2023-07-09T16:07:18;5.67;;;4.23;;
75429;SDS011;64127;51.488;5.462;2023-07-09T16:09:50;4.63;;;4.07;;
75429;SDS011;64127;51.488;5.462;2023-07-09T16:12:22;4.60;;;4.10;;
75429;SDS011;64127;51.488;5.462;2023-07-09T16:14:54;5.17;;;3.90;;